Time;durP1;ratioP1;P1;durP2;ratioP2;P2;SDS_P1;SDS_P2;PMS_P1;PMS_P2;Temp;Humidity;BMP_temperature;BMP_pressure;BME280_temperature;BME280_humidity;BME280_pressure;Samples;Min_cycle;Max_cycle;Signal;HPM_P1;HPM_P2
2023/07/25 00:01:31;;;;;;;2.80;2.10;;;17.30;99.90;;;;;;5058052;28;20120;-32
2023/07/25 00:03:57;;;;;;;4.00;2.10;;;17.20;99.90;;;;;;5055044;28;20039;-31
2023/07/25 00:06:23;;;;;;;2.50;2.10;;;17.20;99.90;;;;;;5054072;28;20155;-32
2023/07/25 00:08:48;;;;;;;4.38;2.40;;;17.20;99.90;;;;;;5055083;28;20100;-37
2023/07/25 00:11:14;;;;;;;2.53;2.00;;;17.10;99.90;;;;;;5056754;28;20031;-32
2023/07/25 00:13:40;;;;;;;3.00;1.95;;;17.20;99.90;;;;;;5055510;28;20017;-37
2023/07/25 00:16:05;;;;;;;3.45;2.30;;;17.20;99.90;;;;;;5055159;28;20926;-31
2023/07/25 00:18:31;;;;;;;4.68;2.58;;;17.10;99.90;;;;;;5055322;28;20724;-34
2023/07/25 00:20:57;;;;;;;4.03;2.58;;;17.10;99.90;;;;;;5071341;28;20124;-32
2023/07/25 00:23:22;;;;;;;3.97;2.30;;;17.10;99.90;;;;;;5055790;28;20056;-35
2023/07/25 00:25:48;;;;;;;2.90;2.47;;;17.20;99.90;;;;;;5056175;28;20430;-36
2023/07/25 00:28:14;;;;;;;3.35;2.55;;;17.20;99.90;;;;;;5056331;28;20032;-32
2023/07/25 00:30:39;;;;;;;4.38;2.42;;;17.20;99.90;;;;;;5065640;28;20032;-35
2023/07/25 00:33:05;;;;;;;4.57;2.42;;;17.20;99.90;;;;;;5054947;28;20115;-35
2023/07/25 00:35:31;;;;;;;3.17;1.98;;;17.20;99.90;;;;;;5057355;28;20032;-33
2023/07/25 00:37:57;;;;;;;5.10;2.33;;;17.10;99.90;;;;;;5055879;28;20033;-34
2023/07/25 00:40:22;;;;;;;2.33;2.00;;;17.10;99.90;;;;;;5069340;28;20055;-32
2023/07/25 00:42:54;;;;;;;2.88;2.10;;;17.10;99.90;;;;;;5056737;28;20047;-33
2023/07/25 00:45:20;;;;;;;2.92;2.55;;;17.20;99.90;;;;;;5055449;28;20470;-34
2023/07/25 00:47:46;;;;;;;2.60;2.10;;;17.10;99.90;;;;;;5056133;28;20029;-31
2023/07/25 00:50:12;;;;;;;6.40;2.38;;;17.10;99.90;;;;;;5055630;28;20025;-34
2023/07/25 00:52:37;;;;;;;5.22;2.50;;;17.10;99.90;;;;;;5071154;28;20593;-31
2023/07/25 00:55:03;;;;;;;2.88;2.20;;;17.10;99.90;;;;;;5054175;28;20504;-33
2023/07/25 00:57:30;;;;;;;4.40;2.30;;;17.00;99.90;;;;;;5056391;28;20038;-34
2023/07/25 00:59:56;;;;;;;3.53;2.20;;;17.00;99.90;;;;;;5053250;28;20417;-35
2023/07/25 01:02:22;;;;;;;3.42;2.47;;;17.10;99.90;;;;;;5054357;28;20040;-36
2023/07/25 01:04:48;;;;;;;2.65;2.30;;;17.10;99.90;;;;;;5054638;28;20526;-34
2023/07/25 01:07:14;;;;;;;3.83;2.30;;;17.10;99.90;;;;;;5058191;28;20366;-35
2023/07/25 01:09:45;;;;;;;5.40;2.50;;;17.10;99.90;;;;;;5054701;28;20410;-35
2023/07/25 01:12:12;;;;;;;3.85;2.38;;;17.10;99.90;;;;;;5053461;28;20033;-31
2023/07/25 01:14:38;;;;;;;2.42;1.80;;;17.00;99.90;;;;;;5055852;28;20037;-32
2023/07/25 01:17:17;;;;;;;5.13;1.90;;;17.00;99.90;;;;;;5053134;28;20067;-35
2023/07/25 01:19:43;;;;;;;5.55;2.30;;;17.10;99.90;;;;;;5060400;28;20056;-31
2023/07/25 01:22:09;;;;;;;3.63;2.40;;;17.10;99.90;;;;;;5057482;28;20036;-36
2023/07/25 01:24:37;;;;;;;3.90;2.25;;;17.10;99.90;;;;;;5059143;28;20037;-32
2023/07/25 01:27:02;;;;;;;5.10;2.55;;;17.10;99.90;;;;;;5059884;28;20029;-32
2023/07/25 01:29:28;;;;;;;3.80;1.90;;;17.00;99.90;;;;;;5059950;28;20044;-32
2023/07/25 01:31:54;;;;;;;3.15;2.20;;;17.00;99.90;;;;;;5066398;28;20035;-32
2023/07/25 01:34:20;;;;;;;4.55;2.33;;;17.00;99.90;;;;;;5060271;28;20036;-32
2023/07/25 01:36:45;;;;;;;3.30;2.60;;;17.00;99.90;;;;;;5062505;28;20033;-32
2023/07/25 01:39:11;;;;;;;3.00;2.05;;;16.90;99.90;;;;;;5065897;28;20036;-32
2023/07/25 01:41:38;;;;;;;4.78;2.50;;;16.90;99.90;;;;;;5064161;28;20027;-32
2023/07/25 01:44:03;;;;;;;3.85;2.33;;;16.90;99.90;;;;;;5064547;28;20075;-32
2023/07/25 01:46:29;;;;;;;4.82;2.33;;;16.90;99.90;;;;;;5063222;28;20051;-34
2023/07/25 01:48:54;;;;;;;4.10;2.40;;;16.80;99.90;;;;;;5063472;28;20177;-32
2023/07/25 01:51:20;;;;;;;2.60;2.38;;;16.90;99.90;;;;;;5077576;28;20036;-34
2023/07/25 01:53:46;;;;;;;5.32;2.80;;;16.90;99.90;;;;;;5063162;28;20056;-34
2023/07/25 01:56:11;;;;;;;4.78;2.38;;;16.80;99.90;;;;;;5063247;28;20060;-33
2023/07/25 01:58:37;;;;;;;3.95;2.50;;;16.90;99.90;;;;;;5067556;28;20542;-33
2023/07/25 02:01:02;;;;;;;4.35;2.30;;;16.80;99.90;;;;;;5068900;28;20050;-33
2023/07/25 02:03:28;;;;;;;3.55;2.45;;;16.90;99.90;;;;;;5069113;28;20087;-32
2023/07/25 02:05:54;;;;;;;5.32;2.58;;;16.80;99.90;;;;;;5068872;28;20425;-32
2023/07/25 02:08:19;;;;;;;3.55;2.50;;;16.80;99.90;;;;;;5071221;28;20048;-35
2023/07/25 02:10:45;;;;;;;5.32;2.50;;;16.80;99.90;;;;;;5070052;28;20593;-42
2023/07/25 02:13:10;;;;;;;4.53;3.03;;;16.80;99.90;;;;;;5062390;28;20029;-41
2023/07/25 02:15:36;;;;;;;4.53;2.70;;;16.70;99.90;;;;;;5068663;28;20102;-42
2023/07/25 02:18:02;;;;;;;3.08;2.45;;;16.80;99.90;;;;;;5064605;28;20116;-41
2023/07/25 02:20:31;;;;;;;6.00;2.60;;;16.80;99.90;;;;;;5070905;28;20032;-42
2023/07/25 02:22:57;;;;;;;4.05;2.85;;;16.80;99.90;;;;;;5065680;28;20029;-37
2023/07/25 02:25:28;;;;;;;5.45;2.70;;;16.80;99.90;;;;;;5067757;28;20024;-41
2023/07/25 02:27:53;;;;;;;4.72;2.35;;;16.80;99.90;;;;;;5063693;28;20048;-42
2023/07/25 02:30:20;;;;;;;3.25;2.05;;;16.60;99.90;;;;;;5064901;28;20060;-41
2023/07/25 02:32:46;;;;;;;3.10;2.15;;;16.70;99.90;;;;;;5068938;28;20035;-42
2023/07/25 02:35:11;;;;;;;2.92;2.15;;;16.70;99.90;;;;;;5066747;28;20036;-42
2023/07/25 02:37:37;;;;;;;3.20;2.22;;;16.70;99.90;;;;;;5067744;28;20086;-42
2023/07/25 02:40:03;;;;;;;2.53;2.10;;;16.70;99.90;;;;;;5066438;28;20028;-36
2023/07/25 02:42:29;;;;;;;6.78;2.65;;;16.70;99.90;;;;;;5065880;28;20056;-42
2023/07/25 02:44:54;;;;;;;4.32;2.53;;;16.70;99.90;;;;;;5066817;28;20036;-42
2023/07/25 02:47:20;;;;;;;4.32;2.50;;;16.80;99.90;;;;;;5069157;28;20033;-38
2023/07/25 02:49:45;;;;;;;6.47;3.10;;;16.70;99.90;;;;;;5064347;28;20060;-42
2023/07/25 02:52:11;;;;;;;5.40;2.45;;;16.70;99.90;;;;;;5067556;28;20099;-40
2023/07/25 02:54:36;;;;;;;4.38;3.00;;;16.70;99.90;;;;;;5072834;28;20051;-41
2023/07/25 02:57:02;;;;;;;6.45;2.70;;;16.60;99.90;;;;;;5069114;28;20025;-38
2023/07/25 02:59:29;;;;;;;5.60;2.65;;;16.70;99.90;;;;;;5065911;28;20652;-42
2023/07/25 03:01:54;;;;;;;3.92;3.03;;;16.70;99.90;;;;;;5068930;28;20052;-39
2023/07/25 03:04:20;;;;;;;4.13;2.72;;;16.70;99.90;;;;;;5067974;28;20036;-41
2023/07/25 03:06:46;;;;;;;5.97;2.40;;;16.80;99.90;;;;;;5066876;28;20532;-40
2023/07/25 03:09:11;;;;;;;6.82;2.53;;;16.80;99.90;;;;;;5066201;28;20390;-42
2023/07/25 03:11:37;;;;;;;3.65;2.15;;;16.80;99.90;;;;;;5065124;28;20025;-40
2023/07/25 03:14:03;;;;;;;3.50;2.47;;;16.80;99.90;;;;;;5063050;28;20055;-39
2023/07/25 03:16:29;;;;;;;3.58;2.53;;;16.80;99.90;;;;;;5064187;28;20044;-43
2023/07/25 03:18:54;;;;;;;2.50;2.30;;;16.70;99.90;;;;;;5062892;28;20036;-34
2023/07/25 03:21:20;;;;;;;3.40;2.55;;;16.70;99.90;;;;;;5064555;28;20461;-34
2023/07/25 03:23:45;;;;;;;3.40;2.35;;;16.80;99.90;;;;;;5068954;28;20032;-34
2023/07/25 03:26:11;;;;;;;3.50;2.20;;;16.80;99.90;;;;;;5064497;28;20033;-34
2023/07/25 03:28:37;;;;;;;7.25;2.65;;;16.70;99.90;;;;;;5065583;28;20048;-36
2023/07/25 03:31:05;;;;;;;4.13;2.45;;;16.60;99.90;;;;;;5065524;28;20063;-33
2023/07/25 03:33:30;;;;;;;2.95;2.17;;;16.50;99.90;;;;;;5062147;28;20017;-36
2023/07/25 03:35:56;;;;;;;3.15;2.47;;;16.50;99.90;;;;;;5051426;28;20047;-38
2023/07/25 03:38:21;;;;;;;3.42;2.50;;;16.50;99.90;;;;;;5052315;28;20149;-35
2023/07/25 03:40:47;;;;;;;5.22;2.47;;;16.50;99.90;;;;;;5063079;28;20028;-34
2023/07/25 03:43:13;;;;;;;3.25;2.60;;;16.50;99.90;;;;;;5066157;28;20028;-37
2023/07/25 03:45:39;;;;;;;4.13;2.53;;;16.50;99.90;;;;;;5067642;28;20035;-36
2023/07/25 03:48:05;;;;;;;5.10;2.50;;;16.50;99.90;;;;;;5065745;28;20046;-34
2023/07/25 03:50:30;;;;;;;4.65;2.40;;;16.50;99.90;;;;;;5067338;28;20162;-36
2023/07/25 03:52:59;;;;;;;4.65;2.75;;;16.60;99.90;;;;;;5063872;28;20035;-35
2023/07/25 03:55:25;;;;;;;5.88;2.30;;;16.60;99.90;;;;;;5064582;28;20041;-33
2023/07/25 03:57:51;;;;;;;3.22;2.38;;;16.60;99.90;;;;;;5066349;28;20043;-33
2023/07/25 04:00:17;;;;;;;5.15;2.90;;;16.60;99.90;;;;;;5067326;28;20525;-33
2023/07/25 04:02:42;;;;;;;5.03;2.60;;;16.60;99.90;;;;;;5061149;28;20069;-37
2023/07/25 04:05:08;;;;;;;3.90;2.75;;;16.60;99.90;;;;;;5061355;28;20025;-35
2023/07/25 04:07:34;;;;;;;3.38;2.40;;;16.50;99.90;;;;;;5062812;28;20040;-36
2023/07/25 04:10:00;;;;;;;3.10;2.22;;;16.50;99.90;;;;;;5061777;28;20021;-33
2023/07/25 04:12:26;;;;;;;3.25;2.40;;;16.50;99.90;;;;;;5063285;28;20123;-33
2023/07/25 04:14:51;;;;;;;4.57;2.08;;;16.60;99.90;;;;;;5065042;28;20034;-34
2023/07/25 04:17:17;;;;;;;4.88;2.30;;;16.50;99.90;;;;;;5062512;28;20039;-35
2023/07/25 04:19:42;;;;;;;3.90;2.25;;;16.50;99.90;;;;;;5062756;28;20081;-33
2023/07/25 04:22:08;;;;;;;4.38;2.60;;;16.50;99.90;;;;;;5066271;28;20830;-35
2023/07/25 04:24:33;;;;;;;3.55;2.05;;;16.50;99.90;;;;;;5064085;28;20482;-34
2023/07/25 04:26:59;;;;;;;2.28;2.08;;;16.50;99.90;;;;;;5066193;28;20113;-34
2023/07/25 04:29:24;;;;;;;3.75;2.20;;;16.30;99.90;;;;;;5066049;28;20032;-33
2023/07/25 04:31:50;;;;;;;4.65;2.53;;;16.40;99.90;;;;;;5058965;28;20036;-34
2023/07/25 04:34:16;;;;;;;4.18;2.17;;;16.30;99.90;;;;;;5064470;28;20111;-36
2023/07/25 04:36:41;;;;;;;2.72;2.25;;;16.30;99.90;;;;;;5061727;28;20227;-33
2023/07/25 04:39:07;;;;;;;3.05;1.92;;;16.30;99.90;;;;;;5065990;28;20021;-33
2023/07/25 04:41:32;;;;;;;3.25;2.10;;;16.30;99.90;;;;;;5051559;28;20032;-36
2023/07/25 04:43:58;;;;;;;3.78;2.33;;;16.30;99.90;;;;;;5046617;28;20215;-37
2023/07/25 04:46:23;;;;;;;3.55;1.85;;;16.30;99.90;;;;;;5068151;28;20033;-33
2023/07/25 04:48:49;;;;;;;2.72;2.10;;;16.40;99.90;;;;;;5063863;28;20031;-36
2023/07/25 04:51:15;;;;;;;6.20;2.25;;;16.40;99.90;;;;;;5064015;28;20078;-35
2023/07/25 04:53:40;;;;;;;2.97;2.40;;;16.40;99.90;;;;;;5061852;28;20623;-34
2023/07/25 04:56:06;;;;;;;4.20;2.40;;;16.40;99.90;;;;;;5063927;28;20053;-35
2023/07/25 04:58:31;;;;;;;3.85;2.38;;;16.40;99.90;;;;;;5060944;28;20636;-37
2023/07/25 05:00:57;;;;;;;2.92;2.38;;;16.50;99.90;;;;;;5056261;28;20033;-37
2023/07/25 05:03:24;;;;;;;5.07;2.45;;;16.50;99.90;;;;;;5065810;28;20029;-33
2023/07/25 05:05:51;;;;;;;2.78;2.35;;;16.50;99.90;;;;;;5057398;28;20035;-38
2023/07/25 05:08:17;;;;;;;4.23;1.80;;;16.40;99.90;;;;;;5063605;28;20379;-35
2023/07/25 05:10:42;;;;;;;4.13;2.00;;;16.30;99.90;;;;;;5062003;28;20024;-33
2023/07/25 05:13:08;;;;;;;3.00;2.10;;;16.20;99.90;;;;;;5065294;28;20054;-35
2023/07/25 05:15:33;;;;;;;3.40;2.10;;;16.20;99.90;;;;;;5065307;28;20574;-33
2023/07/25 05:17:59;;;;;;;2.38;1.90;;;16.20;99.90;;;;;;5064711;28;20027;-34
2023/07/25 05:20:25;;;;;;;3.72;2.00;;;16.10;99.90;;;;;;5052675;28;20039;-37
2023/07/25 05:22:50;;;;;;;2.58;1.95;;;16.20;99.90;;;;;;5050612;28;20790;-35
2023/07/25 05:25:16;;;;;;;4.82;2.40;;;16.20;99.90;;;;;;5063572;28;20584;-34
2023/07/25 05:27:41;;;;;;;2.88;2.10;;;16.30;99.90;;;;;;5061497;28;20055;-34
2023/07/25 05:30:07;;;;;;;2.95;2.10;;;16.30;99.90;;;;;;5065619;28;20024;-37
2023/07/25 05:32:33;;;;;;;3.25;2.20;;;16.40;99.90;;;;;;5057092;28;20052;-35
2023/07/25 05:34:59;;;;;;;5.22;2.40;;;16.40;99.90;;;;;;5063584;28;20120;-34
2023/07/25 05:37:34;;;;;;;5.45;2.33;;;16.50;99.90;;;;;;5066036;28;20163;-35
2023/07/25 05:40:00;;;;;;;3.83;2.38;;;16.50;99.90;;;;;;5064981;28;20119;-34
2023/07/25 05:42:25;;;;;;;4.65;2.20;;;16.40;99.90;;;;;;5061458;28;20127;-35
2023/07/25 05:44:51;;;;;;;2.88;2.15;;;16.30;99.90;;;;;;5064196;28;20032;-35
2023/07/25 05:47:16;;;;;;;3.45;1.88;;;16.40;99.90;;;;;;5065265;28;20020;-34
2023/07/25 05:49:42;;;;;;;2.25;1.85;;;16.40;99.90;;;;;;5062561;28;20025;-37
2023/07/25 05:52:08;;;;;;;3.65;2.20;;;16.40;99.90;;;;;;5061578;28;20101;-34
2023/07/25 05:54:33;;;;;;;3.17;1.95;;;16.50;99.90;;;;;;5062702;28;20050;-33
2023/07/25 05:57:01;;;;;;;3.95;2.20;;;16.50;99.90;;;;;;5065625;28;20437;-33
2023/07/25 05:59:26;;;;;;;3.97;2.20;;;16.50;99.90;;;;;;5065786;28;20098;-34
2023/07/25 06:01:52;;;;;;;3.22;1.80;;;16.50;99.90;;;;;;5059965;28;20523;-33
2023/07/25 06:04:18;;;;;;;6.47;2.22;;;16.60;99.90;;;;;;5062968;28;20035;-33
2023/07/25 06:06:44;;;;;;;3.75;2.35;;;16.70;99.90;;;;;;5064451;28;20020;-34
2023/07/25 06:09:09;;;;;;;3.03;2.10;;;16.70;99.90;;;;;;5060947;28;20021;-36
2023/07/25 06:11:35;;;;;;;4.85;2.83;;;16.80;99.90;;;;;;5061940;28;20029;-35
2023/07/25 06:14:01;;;;;;;3.95;2.45;;;16.80;99.90;;;;;;5062708;28;20086;-37
2023/07/25 06:16:27;;;;;;;14.25;9.75;;;16.90;99.90;;;;;;5061540;28;20028;-33
2023/07/25 06:18:52;;;;;;;3.20;2.28;;;17.00;99.90;;;;;;5059859;28;20056;-33
2023/07/25 06:21:18;;;;;;;4.55;2.35;;;17.00;99.90;;;;;;5063434;28;20035;-34
2023/07/25 06:23:44;;;;;;;3.20;2.42;;;17.10;99.90;;;;;;5063491;28;20028;-35
2023/07/25 06:26:09;;;;;;;2.70;2.30;;;17.20;99.90;;;;;;5062918;28;20036;-35
2023/07/25 06:28:35;;;;;;;3.20;2.40;;;17.20;99.90;;;;;;5060209;28;20032;-36
2023/07/25 06:31:02;;;;;;;3.70;2.28;;;17.20;99.90;;;;;;5057992;28;20402;-33
2023/07/25 06:33:28;;;;;;;4.73;2.57;;;17.30;99.90;;;;;;5061431;28;20055;-33
2023/07/25 06:35:54;;;;;;;4.38;2.33;;;17.50;99.90;;;;;;5056560;28;20475;-33
2023/07/25 06:38:19;;;;;;;5.10;2.60;;;17.60;99.90;;;;;;5064209;28;20074;-38
2023/07/25 06:40:45;;;;;;;3.65;2.05;;;17.60;99.90;;;;;;5058930;28;20033;-35
2023/07/25 06:43:10;;;;;;;4.18;2.30;;;17.70;99.90;;;;;;5063656;28;20039;-33
2023/07/25 06:45:36;;;;;;;3.78;2.53;;;17.70;99.90;;;;;;5059337;28;20123;-34
2023/07/25 06:48:02;;;;;;;2.42;2.17;;;17.80;99.90;;;;;;5062341;28;20028;-38
2023/07/25 06:50:27;;;;;;;3.45;2.30;;;17.80;99.90;;;;;;5064813;28;20754;-41
2023/07/25 06:52:53;;;;;;;4.03;2.20;;;17.80;99.90;;;;;;5070147;28;20437;-42
2023/07/25 06:55:19;;;;;;;2.60;2.03;;;17.90;99.90;;;;;;5068384;28;20059;-41
2023/07/25 06:57:45;;;;;;;6.10;2.53;;;17.90;99.90;;;;;;5069447;28;20103;-41
2023/07/25 07:00:12;;;;;;;3.67;2.08;;;17.90;99.90;;;;;;5068327;28;20102;-37
2023/07/25 07:02:38;;;;;;;2.65;1.98;;;18.00;99.90;;;;;;5062551;28;20103;-40
2023/07/25 07:05:04;;;;;;;5.25;2.28;;;18.00;99.90;;;;;;5066338;28;20102;-38
2023/07/25 07:07:29;;;;;;;3.08;2.05;;;18.10;99.90;;;;;;5066530;28;20032;-42
2023/07/25 07:09:55;;;;;;;2.83;2.15;;;18.10;99.90;;;;;;5067799;28;20028;-42
2023/07/25 07:12:20;;;;;;;2.88;2.22;;;18.10;99.90;;;;;;5069569;28;20115;-41
2023/07/25 07:14:46;;;;;;;3.13;2.15;;;18.10;99.90;;;;;;5068719;28;20036;-41
2023/07/25 07:17:12;;;;;;;2.45;2.08;;;18.10;99.90;;;;;;5070330;28;20478;-40
2023/07/25 07:19:38;;;;;;;3.35;2.30;;;18.00;99.90;;;;;;5068493;28;20125;-40
2023/07/25 07:22:03;;;;;;;3.28;2.05;;;18.00;99.90;;;;;;5063715;28;20139;-42
2023/07/25 07:24:29;;;;;;;2.47;2.17;;;18.00;99.90;;;;;;5067543;28;20036;-42
2023/07/25 07:26:54;;;;;;;2.47;2.03;;;18.00;99.90;;;;;;5062041;28;20025;-40
2023/07/25 07:29:20;;;;;;;2.28;2.08;;;18.00;99.90;;;;;;5068037;28;20028;-41
2023/07/25 07:31:46;;;;;;;3.65;2.28;;;18.00;99.90;;;;;;5066527;28;20032;-41
2023/07/25 07:34:14;;;;;;;2.75;2.03;;;18.00;99.90;;;;;;5064711;28;20039;-41
2023/07/25 07:36:41;;;;;;;2.75;2.10;;;18.00;99.90;;;;;;5066774;28;20440;-41
2023/07/25 07:39:07;;;;;;;3.10;2.20;;;17.90;99.90;;;;;;5064077;28;20044;-42
2023/07/25 07:41:34;;;;;;;4.60;1.67;;;17.90;99.90;;;;;;5069904;28;20037;-41
2023/07/25 07:44:00;;;;;;;2.10;1.90;;;17.70;99.90;;;;;;5082654;28;20032;-32
2023/07/25 07:46:30;;;;;;;3.25;2.35;;;17.70;99.90;;;;;;5087854;28;20044;-33
2023/07/25 07:49:00;;;;;;;2.20;2.00;;;17.70;99.90;;;;;;5082570;28;20036;-32
2023/07/25 07:51:26;;;;;;;4.32;2.60;;;17.70;99.90;;;;;;5066453;28;20810;-36
2023/07/25 07:53:52;;;;;;;2.42;1.90;;;17.70;99.90;;;;;;5070457;28;20029;-32
2023/07/25 07:56:19;;;;;;;3.22;1.85;;;17.60;99.90;;;;;;5064302;28;20058;-32
2023/07/25 07:58:45;;;;;;;4.32;2.38;;;17.50;99.90;;;;;;5080688;28;20030;-42
2023/07/25 08:01:18;;;;;;;2.72;2.22;;;17.60;99.90;;;;;;5063097;28;20100;-42
2023/07/25 08:03:45;;;;;;;3.42;1.83;;;17.60;99.90;;;;;;5065062;28;20028;-42
2023/07/25 08:06:11;;;;;;;3.13;1.98;;;17.60;99.90;;;;;;5067557;28;20033;-40
2023/07/25 08:08:36;;;;;;;3.17;1.92;;;17.70;99.90;;;;;;5064973;28;20433;-39
2023/07/25 08:11:02;;;;;;;3.17;2.03;;;17.90;99.90;;;;;;5064542;28;20028;-41
2023/07/25 08:13:27;;;;;;;3.33;2.40;;;18.00;99.90;;;;;;5068145;28;20024;-41
2023/07/25 08:15:53;;;;;;;2.80;2.05;;;18.00;99.90;;;;;;5068940;28;20610;-40
2023/07/25 08:18:20;;;;;;;3.25;2.03;;;18.10;99.90;;;;;;5066161;28;20040;-43
2023/07/25 08:20:45;;;;;;;3.67;2.22;;;18.20;99.90;;;;;;5066182;28;20028;-42
2023/07/25 08:23:12;;;;;;;2.55;1.73;;;18.20;99.90;;;;;;5061514;28;20082;-40
2023/07/25 08:25:38;;;;;;;2.78;2.00;;;18.20;99.90;;;;;;5063765;28;20036;-41
2023/07/25 08:28:04;;;;;;;3.53;1.92;;;18.20;99.90;;;;;;5076828;28;20374;-42
2023/07/25 08:30:30;;;;;;;3.05;2.60;;;18.20;99.90;;;;;;5062732;28;20020;-38
2023/07/25 08:32:56;;;;;;;7.90;2.20;;;18.30;99.90;;;;;;5059727;28;20028;-42
2023/07/25 08:35:21;;;;;;;2.72;2.08;;;18.40;99.90;;;;;;5060687;28;20039;-40
2023/07/25 08:37:47;;;;;;;2.38;1.83;;;18.40;99.90;;;;;;5077462;28;20115;-40
2023/07/25 08:40:13;;;;;;;4.03;2.15;;;18.50;99.90;;;;;;5064826;28;20032;-42
2023/07/25 08:42:42;;;;;;;3.90;2.08;;;18.70;99.90;;;;;;5067477;28;20028;-42
2023/07/25 08:45:10;;;;;;;1.85;1.60;;;18.80;99.90;;;;;;5068685;28;20047;-42
2023/07/25 08:47:39;;;;;;;3.93;1.93;;;18.90;99.90;;;;;;5063885;28;20017;-42
2023/07/25 08:50:11;;;;;;;2.90;1.50;;;18.90;99.90;;;;;;5065304;28;20147;-41
2023/07/25 08:52:39;;;;;;;2.17;1.73;;;18.80;99.90;;;;;;5063117;28;20020;-39
2023/07/25 08:55:05;;;;;;;1.75;1.50;;;18.70;99.90;;;;;;5066741;28;20040;-40
2023/07/25 08:57:32;;;;;;;2.42;1.95;;;18.70;99.90;;;;;;5067013;28;20031;-39
2023/07/25 08:59:59;;;;;;;3.05;1.80;;;18.60;99.90;;;;;;5061542;28;20120;-38
2023/07/25 09:02:25;;;;;;;3.53;1.97;;;18.60;99.90;;;;;;5046675;28;20029;-41
2023/07/25 09:04:52;;;;;;;3.25;1.70;;;18.60;99.90;;;;;;5065728;28;20478;-40
2023/07/25 09:07:18;;;;;;;2.00;1.80;;;18.60;99.90;;;;;;5064690;28;20773;-41
2023/07/25 09:09:44;;;;;;;2.25;1.73;;;18.60;99.90;;;;;;5067326;28;20152;-37
2023/07/25 09:12:09;;;;;;;1.70;1.38;;;18.40;99.90;;;;;;5068238;28;20035;-37
2023/07/25 09:14:36;;;;;;;2.83;1.90;;;18.30;99.90;;;;;;5076722;28;20029;-39
2023/07/25 09:17:06;;;;;;;2.70;2.20;;;18.30;99.90;;;;;;5063346;28;20478;-37
2023/07/25 09:19:32;;;;;;;2.15;1.95;;;18.20;99.90;;;;;;5064504;28;20052;-41
2023/07/25 09:21:58;;;;;;;2.38;1.88;;;18.20;99.90;;;;;;5067475;28;20028;-41
2023/07/25 09:24:37;;;;;;;2.63;2.00;;;18.10;99.90;;;;;;5063776;28;20051;-40
2023/07/25 09:27:04;;;;;;;2.38;1.55;;;18.10;99.90;;;;;;5066495;28;20074;-42
2023/07/25 09:29:30;;;;;;;2.33;1.30;;;18.10;99.90;;;;;;5066828;28;20494;-38
2023/07/25 09:31:56;;;;;;;2.83;1.45;;;17.90;99.90;;;;;;5063951;28;20043;-36
2023/07/25 09:34:25;;;;;;;2.67;1.50;;;17.80;99.90;;;;;;5067427;28;20028;-42
2023/07/25 09:36:51;;;;;;;1.80;1.48;;;17.60;99.90;;;;;;5058450;28;20025;-40
2023/07/25 09:39:17;;;;;;;2.47;1.20;;;17.60;99.90;;;;;;5066527;28;20117;-38
2023/07/25 09:41:45;;;;;;;2.53;1.30;;;17.50;99.90;;;;;;5066714;28;20032;-39
2023/07/25 09:44:10;;;;;;;;;;;17.50;99.90;;;;;;5066619;28;20478;-37
2023/07/25 09:46:36;;;;;;;1.60;1.33;;;17.60;99.90;;;;;;5062305;28;19927;-39
2023/07/25 09:49:02;;;;;;;3.60;1.58;;;17.60;99.90;;;;;;5066545;28;20028;-40
2023/07/25 09:51:28;;;;;;;1.67;1.40;;;17.70;99.90;;;;;;5066808;28;20104;-42
2023/07/25 09:53:54;;;;;;;1.73;1.35;;;17.80;99.90;;;;;;5062871;28;20032;-41
2023/07/25 09:56:22;;;;;;;2.40;1.48;;;17.90;99.90;;;;;;5077018;28;20052;-35
2023/07/25 09:58:49;;;;;;;1.67;1.50;;;18.00;99.90;;;;;;5067091;28;20036;-40
2023/07/25 10:01:15;;;;;;;1.83;1.30;;;18.10;99.90;;;;;;5067083;28;20442;-41
2023/07/25 10:03:45;;;;;;;2.30;1.30;;;18.20;99.90;;;;;;5060953;28;20031;-40
2023/07/25 10:06:14;;;;;;;4.38;1.40;;;18.40;99.90;;;;;;5058792;28;20033;-41
2023/07/25 10:08:50;;;;;;;2.78;1.20;;;18.50;99.90;;;;;;5060168;28;20137;-41
2023/07/25 10:11:16;;;;;;;3.22;1.17;;;18.70;99.90;;;;;;5058819;28;20033;-36
2023/07/25 10:13:42;;;;;;;1.73;1.45;;;18.80;99.90;;;;;;5063743;28;20039;-38
2023/07/25 10:16:10;;;;;;;2.35;1.40;;;19.00;99.90;;;;;;5065289;28;20029;-38
2023/07/25 10:18:36;;;;;;;;;;;19.10;99.90;;;;;;5065007;28;20778;-40
2023/07/25 10:21:02;;;;;;;1.98;1.48;;;19.30;99.90;;;;;;5072221;28;19912;-41
2023/07/25 10:23:34;;;;;;;2.28;1.63;;;19.30;99.90;;;;;;5064814;28;20037;-41
2023/07/25 10:26:20;;;;;;;2.05;1.38;;;18.90;99.90;;;;;;5067381;28;20131;-41
2023/07/25 10:28:45;;;;;;;1.75;1.30;;;18.90;99.90;;;;;;5066513;28;20111;-40
2023/07/25 10:31:22;;;;;;;1.80;1.30;;;18.40;99.90;;;;;;5067250;28;20132;-39
2023/07/25 10:33:57;;;;;;;1.65;1.23;;;17.80;99.90;;;;;;5058018;28;20386;-41
2023/07/25 10:36:24;;;;;;;2.25;1.38;;;17.20;99.90;;;;;;5070211;28;20032;-39
2023/07/25 10:38:50;;;;;;;5.35;1.20;;;16.90;99.90;;;;;;5071127;28;20036;-41
2023/07/25 10:41:16;;;;;;;1.42;1.02;;;16.90;99.90;;;;;;5067742;28;20513;-41
2023/07/25 10:43:45;;;;;;;1.95;0.98;;;16.90;99.90;;;;;;5071890;28;20127;-41
2023/07/25 10:46:18;;;;;;;2.30;1.20;;;16.80;99.90;;;;;;5068871;28;20532;-41
2023/07/25 10:48:49;;;;;;;2.53;1.10;;;16.80;99.90;;;;;;5064522;28;20479;-40
2023/07/25 10:51:16;;;;;;;2.30;1.27;;;16.80;99.90;;;;;;5064562;28;20020;-37
2023/07/25 10:54:04;;;;;;;1.60;1.00;;;16.90;99.90;;;;;;5066277;28;20031;-41
2023/07/25 10:56:30;;;;;;;2.30;1.10;;;16.80;99.90;;;;;;5072593;28;20309;-39
2023/07/25 10:59:03;;;;;;;1.83;1.00;;;16.60;99.90;;;;;;5068472;28;20041;-41
2023/07/25 11:01:50;;;;;;;1.65;1.20;;;16.60;99.90;;;;;;5065461;28;20036;-41
2023/07/25 11:04:24;;;;;;;2.13;1.10;;;16.60;99.90;;;;;;5065804;28;20435;-40
2023/07/25 11:06:51;;;;;;;2.30;1.38;;;16.60;99.90;;;;;;5064610;28;20502;-39
2023/07/25 11:09:18;;;;;;;1.80;1.38;;;16.70;99.90;;;;;;5066100;28;20017;-41
2023/07/25 11:11:45;;;;;;;1.52;1.30;;;16.70;99.90;;;;;;5067581;28;20020;-39
2023/07/25 11:14:17;;;;;;;1.77;1.33;;;16.60;99.90;;;;;;5064986;28;20553;-39
2023/07/25 11:16:44;;;;;;;1.58;1.40;;;16.60;99.90;;;;;;5064076;28;20033;-41
2023/07/25 11:19:10;;;;;;;1.95;1.05;;;16.60;99.90;;;;;;5068783;28;20109;-41
2023/07/25 11:21:37;;;;;;;1.35;1.10;;;16.60;99.90;;;;;;5069941;28;20028;-41
2023/07/25 11:24:04;;;;;;;2.17;1.50;;;16.60;99.90;;;;;;5063389;28;20028;-40
2023/07/25 11:26:30;;;;;;;1.95;1.20;;;16.60;99.90;;;;;;5064179;28;20848;-41
2023/07/25 11:29:01;;;;;;;2.45;1.30;;;16.60;99.90;;;;;;5085279;28;20020;-41
2023/07/25 11:31:26;;;;;;;1.45;1.05;;;16.70;99.90;;;;;;5074229;28;20040;-41
2023/07/25 11:33:52;;;;;;;2.53;1.42;;;16.90;99.90;;;;;;5065797;28;20113;-38
2023/07/25 11:36:20;;;;;;;2.08;1.67;;;17.20;99.90;;;;;;5064096;28;20029;-37
2023/07/25 11:38:46;;;;;;;2.38;1.40;;;17.70;99.90;;;;;;5062029;28;20058;-35
2023/07/25 11:41:11;;;;;;;2.35;1.40;;;18.20;99.90;;;;;;5069021;28;20036;-40
2023/07/25 11:43:38;;;;;;;1.63;1.35;;;18.70;99.90;;;;;;5065452;28;20056;-41
2023/07/25 11:46:04;;;;;;;3.38;1.30;;;19.00;99.90;;;;;;5083496;28;20028;-41
2023/07/25 11:48:30;;;;;;;2.78;1.23;;;18.90;99.90;;;;;;5067610;28;20521;-38
2023/07/25 11:50:55;;;;;;;7.15;1.52;;;18.70;99.90;;;;;;5074914;28;20032;-41
2023/07/25 11:53:24;;;;;;;1.38;1.27;;;18.80;99.90;;;;;;5066419;28;20107;-40
2023/07/25 11:55:54;;;;;;;1.88;1.48;;;18.70;99.90;;;;;;5068293;28;20495;-40
2023/07/25 11:58:21;;;;;;;4.25;1.50;;;18.70;99.90;;;;;;5061963;28;20036;-41
2023/07/25 12:00:51;;;;;;;1.40;1.30;;;18.70;99.90;;;;;;5062988;28;20029;-41
2023/07/25 12:03:20;;;;;;;2.60;1.55;;;18.70;99.90;;;;;;5068797;28;20646;-40
2023/07/25 12:06:00;;;;;;;3.20;1.65;;;18.60;99.90;;;;;;5072759;28;20037;-40
2023/07/25 12:08:39;;;;;;;2.05;1.58;;;18.90;99.90;;;;;;5069729;28;20359;-41
2023/07/25 12:11:12;;;;;;;2.60;1.40;;;19.60;99.90;;;;;;5064135;28;20418;-38
2023/07/25 12:13:48;;;;;;;2.03;1.63;;;19.90;99.90;;;;;;5067352;28;20028;-38
2023/07/25 12:16:32;;;;;;;3.88;1.60;;;20.30;99.90;;;;;;5061677;28;20032;-41
2023/07/25 12:19:12;;;;;;;2.78;1.70;;;20.70;99.90;;;;;;5065944;28;20583;-36
2023/07/25 12:21:40;;;;;;;2.88;1.95;;;21.20;99.90;;;;;;5064015;28;20028;-38
2023/07/25 12:24:07;;;;;;;2.17;1.52;;;21.20;99.90;;;;;;5072766;28;20043;-41
2023/07/25 12:26:46;;;;;;;2.60;1.42;;;21.40;99.90;;;;;;5065970;28;20035;-40
2023/07/25 12:29:16;;;;;;;1.70;1.27;;;21.60;99.90;;;;;;5065747;28;20115;-40
2023/07/25 12:31:43;;;;;;;2.25;1.50;;;21.80;99.90;;;;;;5069709;28;20035;-40
2023/07/25 12:34:08;;;;;;;2.58;1.60;;;21.80;99.90;;;;;;5068398;28;20077;-39
2023/07/25 12:36:34;;;;;;;2.30;1.67;;;21.60;99.90;;;;;;5068537;28;20111;-39
2023/07/25 12:38:59;;;;;;;2.13;1.40;;;22.10;99.90;;;;;;5062541;28;20033;-30
2023/07/25 12:41:25;;;;;;;2.05;1.42;;;22.40;99.90;;;;;;5064047;28;20028;-31
2023/07/25 12:43:51;;;;;;;2.35;1.48;;;22.40;99.90;;;;;;5071512;28;20029;-34
2023/07/25 12:46:16;;;;;;;1.67;1.45;;;22.50;99.90;;;;;;5070718;28;20033;-34